MSC Ines — 3EFZ3 — position and weather

sailwx.info

Track history (hours):
 
Tides and Currents Weather Stations Pressure Air Temp Water Temp Dewpoint Dewpoint Depression Visibility Wind Speed Wind Dir Waves Ship Positions

MSC Ines

Last reported at 2014-Aug-01 13:16 UTC. Time now 2014-Sep-02 19:16 UTC.
Position N 27°21' W 117°18'.
Warning: this ship's position is 32 days out of date.

Length 349 m; draft 14.4 m.

Type: Ship (hazmat cat A). MMSI: 356112000.

Date/timePositionNaut miles runAvg speedWind from/ knotsBaromVisibWave heightAir tempDewpointWater temp
2014-Aug-01 13:16N 27°21' W 117°18'1819.3
2014-Aug-01 12:20N 27°33' W 117°33'2219.2
2014-Aug-01 11:12N 27°47' W 117°51'1218.9
2014-Aug-01 10:33N 27°55' W 118°02'1918.6
2014-Aug-01 09:33N 28°08' W 118°17'1818.4
2014-Aug-01 08:33N 28°20' W 118°33'1918.9
2014-Aug-01 07:33N 28°33' W 118°49'2118.8
2014-Aug-01 06:28N 28°45' W 119°07'1718.8
2014-Aug-01 05:33N 28°56' W 119°22'1919.0
2014-Aug-01 04:33N 29°08' W 119°39'1919.3
2014-Aug-01 03:33N 29°20' W 119°57'1919.3
2014-Aug-01 02:33N 29°32' W 120°14'2019.5
2014-Aug-01 01:30N 29°45' W 120°32'1919.6
2014-Aug-01 00:33N 29°57' W 120°49'1919.5
2014-Jul-31 23:33N 30°09' W 121°06'1919.3
2014-Jul-31 22:33N 30°21' W 121°24'1919.4
2014-Jul-31 21:33N 30°33' W 121°42'2019.5
2014-Jul-31 20:33N 30°45' W 121°59'2020.2
2014-Jul-31 19:33N 30°57' W 122°18'2019.9
2014-Jul-31 18:33N 31°10' W 122°36'2019.9
2014-Jul-31 17:33N 31°22' W 122°54'2019.7
2014-Jul-31 16:33N 31°35' W 123°12'2019.6
2014-Jul-31 15:33N 31°47' W 123°30'2020.0
2014-Jul-31 14:33N 31°59' W 123°48'2020.3
2014-Jul-31 13:34N 32°12' W 124°07'2120.2
2014-Jul-31 12:31N 32°25' W 124°27'1920.0
2014-Jul-31 11:33N 32°37' W 124°44'2419.9
2014-Jul-31 10:22N 32°52' W 125°06'2219.8
2014-Jul-31 09:17N 33°05' W 125°26'1520.0
2014-Jul-31 08:33N 33°14' W 125°40'2020.2
2014-Jul-31 07:33N 33°27' W 125°59'2019.9
2014-Jul-31 06:33N 33°39' W 126°17'4120.0
2014-Jul-31 04:29N 34°05' W 126°56'1920.2
2014-Jul-31 03:32N 34°17' W 127°15'2420.3
2014-Jul-31 02:20N 34°33' W 127°37'1620.0
2014-Jul-31 01:33N 34°42' W 127°52'2220.0
2014-Jul-31 00:28N 34°56' W 128°13'1819.9
2014-Jul-30 23:33N 35°07' W 128°31'1919.7
2014-Jul-30 22:33N 35°19' W 128°49'2319.5
2014-Jul-30 21:22N 35°34' W 129°11'3619.7
2014-Jul-30 19:31N 35°56' W 129°47'4019.3
2014-Jul-30 17:26N 36°17' W 130°29'  
Track history (hours):
 
Tides and Currents Weather Stations Pressure Air Temp Water Temp Dewpoint Dewpoint Depression Visibility Wind Speed Wind Dir Waves Ship Positions

MSC Ines

Last reported at 2014-Aug-01 13:16 UTC. Time now 2014-Sep-02 19:16 UTC.
Position N 27°21' W 117°18'.
Warning: this ship's position is 32 days out of date.

Length 349 m; draft 14.4 m.

Type: Ship (hazmat cat A). MMSI: 356112000.

Date/timePositionNaut miles runAvg speedWind from/ knotsBaromVisibWave heightAir tempDewpointWater temp
2014-Aug-01 13:16N 27°21' W 117°18'1819.3
2014-Aug-01 12:20N 27°33' W 117°33'2219.2
2014-Aug-01 11:12N 27°47' W 117°51'1218.9
2014-Aug-01 10:33N 27°55' W 118°02'1918.6
2014-Aug-01 09:33N 28°08' W 118°17'1818.4
2014-Aug-01 08:33N 28°20' W 118°33'1918.9
2014-Aug-01 07:33N 28°33' W 118°49'2118.8
2014-Aug-01 06:28N 28°45' W 119°07'1718.8
2014-Aug-01 05:33N 28°56' W 119°22'1919.0
2014-Aug-01 04:33N 29°08' W 119°39'1919.3
2014-Aug-01 03:33N 29°20' W 119°57'1919.3
2014-Aug-01 02:33N 29°32' W 120°14'2019.5
2014-Aug-01 01:30N 29°45' W 120°32'1919.6
2014-Aug-01 00:33N 29°57' W 120°49'1919.5
2014-Jul-31 23:33N 30°09' W 121°06'1919.3
2014-Jul-31 22:33N 30°21' W 121°24'1919.4
2014-Jul-31 21:33N 30°33' W 121°42'2019.5
2014-Jul-31 20:33N 30°45' W 121°59'2020.2
2014-Jul-31 19:33N 30°57' W 122°18'2019.9
2014-Jul-31 18:33N 31°10' W 122°36'2019.9
2014-Jul-31 17:33N 31°22' W 122°54'2019.7
2014-Jul-31 16:33N 31°35' W 123°12'2019.6
2014-Jul-31 15:33N 31°47' W 123°30'2020.0
2014-Jul-31 14:33N 31°59' W 123°48'2020.3
2014-Jul-31 13:34N 32°12' W 124°07'2120.2
2014-Jul-31 12:31N 32°25' W 124°27'1920.0
2014-Jul-31 11:33N 32°37' W 124°44'2419.9
2014-Jul-31 10:22N 32°52' W 125°06'2219.8
2014-Jul-31 09:17N 33°05' W 125°26'1520.0
2014-Jul-31 08:33N 33°14' W 125°40'2020.2
2014-Jul-31 07:33N 33°27' W 125°59'2019.9
2014-Jul-31 06:33N 33°39' W 126°17'4120.0
2014-Jul-31 04:29N 34°05' W 126°56'1920.2
2014-Jul-31 03:32N 34°17' W 127°15'2420.3
2014-Jul-31 02:20N 34°33' W 127°37'1620.0
2014-Jul-31 01:33N 34°42' W 127°52'2220.0
2014-Jul-31 00:28N 34°56' W 128°13'1819.9
2014-Jul-30 23:33N 35°07' W 128°31'1919.7
2014-Jul-30 22:33N 35°19' W 128°49'2319.5
2014-Jul-30 21:22N 35°34' W 129°11'3619.7
2014-Jul-30 19:31N 35°56' W 129°47'4019.3
2014-Jul-30 17:26N 36°17' W 130°29'  

Dump ship's entire track history